Terminal Aerodrome Forecast
Issued by NWS Burlington, VT

Home | Current Version | Previous Version | Text Only | Print | Product List | Glossary On
Versions: 1 2 3 4 5 6 7 8 9 10 11 12 13 14 15 16 17 18 19
000
FTUS41 KBTV 250544
TAFBTV
TAF
KBTV 250544Z 2506/2606 18018G30KT P6SM FEW130
     FM251700 19012G23KT P6SM VCSH OVC060
     FM252100 19008KT P6SM VCSH OVC045
     FM252300 20005KT P6SM BKN030
     FM260200 29008KT P6SM VCSH BKN020=

USA.gov is the U.S. government's official web portal to all federal, state and local government web resources and services.